Time;durP1;ratioP1;P1;durP2;ratioP2;P2;SDS_P1;SDS_P2;PMS_P1;PMS_P2;Temp;Humidity;BMP_temperature;BMP_pressure;BME280_temperature;BME280_humidity;BME280_pressure;Samples;Min_cycle;Max_cycle;Signal;HPM_P1;HPM_P2
2022/07/09 00:01:45;;;;;;;;;;;17.10;99.90;;;;;;2599452;46;21870;31
2022/07/09 00:04:31;;;;;;;5.40;1.60;;;17.00;99.90;;;;;;2585122;54;20804;31
2022/07/09 00:07:07;;;;;;;3.53;1.48;;;17.00;99.90;;;;;;2603610;46;20964;31
2022/07/09 00:09:41;;;;;;;6.20;1.93;;;17.00;99.90;;;;;;2585339;54;21007;31
2022/07/09 00:12:18;;;;;;;6.87;1.60;;;17.00;99.90;;;;;;2603597;46;20913;31
2022/07/09 00:14:51;;;;;;;6.28;1.63;;;17.00;99.90;;;;;;2585315;54;21316;31
2022/07/09 00:17:29;;;;;;;7.30;1.90;;;16.90;99.90;;;;;;2603447;47;21016;31
2022/07/09 00:20:07;;;;;;;6.05;1.92;;;17.00;99.90;;;;;;2585525;54;20030;31
2022/07/09 00:22:42;;;;;;;8.63;1.95;;;16.90;99.90;;;;;;2585214;54;20060;31
2022/07/09 00:25:16;;;;;;;4.75;1.90;;;16.80;99.90;;;;;;2585780;54;20970;31
2022/07/09 00:27:54;;;;;;;4.90;1.50;;;16.80;99.90;;;;;;2585240;54;21573;31
2022/07/09 00:30:30;;;;;;;6.75;1.98;;;16.70;99.90;;;;;;2585211;54;20703;31
2022/07/09 00:33:06;;;;;;;6.35;2.35;;;16.70;99.90;;;;;;2585282;54;20925;31
2022/07/09 00:35:40;;;;;;;6.40;1.50;;;16.70;99.90;;;;;;2585073;54;20269;31
2022/07/09 00:38:16;;;;;;;4.30;1.80;;;16.70;99.90;;;;;;2585343;54;20570;31
2022/07/09 00:40:50;;;;;;;6.60;2.30;;;16.70;99.90;;;;;;2585270;54;20022;31
2022/07/09 00:43:28;;;;;;;7.68;2.47;;;16.60;99.90;;;;;;2584269;54;21821;31
2022/07/09 00:46:03;;;;;;;4.75;1.75;;;16.60;99.90;;;;;;2584164;54;20836;31
2022/07/09 00:48:36;;;;;;;6.65;2.10;;;16.50;99.90;;;;;;2584553;54;20149;31
2022/07/09 00:51:10;;;;;;;4.83;2.87;;;16.50;99.90;;;;;;2584110;54;21002;31
2022/07/09 00:53:47;;;;;;;2.17;1.15;;;16.50;99.90;;;;;;2681993;39;21018;31
2022/07/09 00:56:23;;;;;;;;;;;16.40;99.90;;;;;;2584450;54;20034;31
2022/07/09 00:59:04;;;;;;;6.90;1.70;;;16.40;99.90;;;;;;2585312;54;20781;31
2022/07/09 01:01:40;;;;;;;6.32;2.10;;;16.40;99.90;;;;;;2603437;47;20027;31
2022/07/09 01:04:15;;;;;;;8.10;1.65;;;16.30;99.90;;;;;;2585121;54;20033;31
2022/07/09 01:06:51;;;;;;;6.03;2.50;;;16.30;99.90;;;;;;2682759;39;21480;31
2022/07/09 01:09:27;;;;;;;6.90;2.13;;;16.30;99.90;;;;;;2585340;54;21019;31
2022/07/09 01:12:00;;;;;;;6.30;2.10;;;16.30;99.90;;;;;;2603166;47;20104;31
2022/07/09 01:14:38;;;;;;;7.80;2.35;;;16.20;99.90;;;;;;2584840;54;20837;31
2022/07/09 01:17:12;;;;;;;5.55;2.00;;;16.20;99.90;;;;;;2603841;47;20982;31
2022/07/09 01:19:48;;;;;;;5.57;1.83;;;16.10;99.90;;;;;;2585761;54;20089;31
2022/07/09 01:22:26;;;;;;;6.75;2.10;;;16.10;99.90;;;;;;2585127;54;20923;31
2022/07/09 01:25:01;;;;;;;5.80;1.93;;;16.00;99.90;;;;;;2691102;39;20509;31
2022/07/09 01:27:34;;;;;;;6.13;2.37;;;16.00;99.90;;;;;;2586130;54;22351;31
2022/07/09 01:30:11;;;;;;;6.90;2.10;;;16.00;99.90;;;;;;2585773;54;19942;31
2022/07/09 01:32:51;;;;;;;7.30;2.30;;;16.00;99.90;;;;;;2604142;46;21051;31
2022/07/09 01:35:28;;;;;;;4.90;2.05;;;15.90;99.90;;;;;;2585527;54;20031;31
2022/07/09 01:38:04;;;;;;;5.20;1.95;;;15.90;99.90;;;;;;2586116;54;20590;31
2022/07/09 01:40:40;;;;;;;3.50;1.85;;;15.80;99.90;;;;;;2585838;54;20065;31
2022/07/09 01:43:14;;;;;;;7.53;1.92;;;15.80;99.90;;;;;;2585810;54;20825;31
2022/07/09 01:45:52;;;;;;;2.85;1.40;;;15.90;99.90;;;;;;2585839;54;20149;31
2022/07/09 01:48:25;;;;;;;6.03;1.83;;;15.80;99.90;;;;;;2585028;54;20032;31
2022/07/09 01:51:01;;;;;;;6.10;2.15;;;15.80;99.90;;;;;;2585971;54;20133;31
2022/07/09 01:53:37;;;;;;;;;;;15.90;99.90;;;;;;2585113;54;20034;31
2022/07/09 01:56:12;;;;;;;2.60;1.10;;;15.90;99.90;;;;;;2585933;54;19942;31
2022/07/09 01:58:46;;;;;;;5.33;1.50;;;15.90;99.90;;;;;;2585929;54;21011;31
2022/07/09 02:01:23;;;;;;;8.25;1.90;;;15.80;99.90;;;;;;2585721;54;20820;31
2022/07/09 02:03:57;;;;;;;6.85;2.15;;;15.90;99.90;;;;;;2585770;54;20048;31
2022/07/09 02:06:30;;;;;;;4.75;1.70;;;15.90;99.90;;;;;;2584880;54;20039;31
2022/07/09 02:09:09;;;;;;;5.75;1.70;;;15.90;99.90;;;;;;2586037;54;20969;31
2022/07/09 02:11:43;;;;;;;8.82;2.58;;;15.90;99.90;;;;;;2584759;54;20023;31
2022/07/09 02:14:16;;;;;;;5.43;2.35;;;15.90;99.90;;;;;;2586051;54;20909;31
2022/07/09 02:16:49;;;;;;;4.07;1.90;;;16.00;99.90;;;;;;2604082;46;20776;31
2022/07/09 02:19:23;;;;;;;6.40;2.20;;;16.00;99.90;;;;;;2604103;46;20914;31
2022/07/09 02:22:00;;;;;;;6.18;2.03;;;16.00;99.90;;;;;;2588899;46;20930;31
2022/07/09 02:24:40;;;;;;;8.10;2.63;;;16.00;99.90;;;;;;2585685;54;20760;31
2022/07/09 02:27:15;;;;;;;6.53;2.03;;;16.00;99.90;;;;;;2585523;54;20089;31
2022/07/09 02:29:52;;;;;;;5.60;1.80;;;16.00;99.90;;;;;;2585531;54;20239;31
2022/07/09 02:32:28;;;;;;;6.10;2.23;;;16.10;99.90;;;;;;2585748;54;20263;31
2022/07/09 02:35:04;;;;;;;6.78;1.85;;;16.10;99.90;;;;;;2585728;54;20041;31
2022/07/09 02:37:37;;;;;;;;;;;16.10;99.90;;;;;;2683794;39;20485;31
2022/07/09 02:40:16;;;;;;;6.83;2.40;;;16.10;99.90;;;;;;2603589;46;20891;31
2022/07/09 02:42:53;;;;;;;7.82;2.60;;;16.10;99.90;;;;;;2585628;54;19934;31
2022/07/09 02:45:28;;;;;;;8.32;2.20;;;16.10;99.90;;;;;;2604282;46;20133;31
2022/07/09 02:48:05;;;;;;;7.47;2.20;;;16.10;99.90;;;;;;2585770;54;20971;31
2022/07/09 02:50:46;;;;;;;4.18;2.45;;;16.10;99.90;;;;;;2584595;54;20053;31
2022/07/09 02:53:21;;;;;;;6.88;2.42;;;16.10;99.90;;;;;;2587390;46;20027;31
2022/07/09 02:55:59;;;;;;;4.90;2.20;;;16.10;99.90;;;;;;2584726;54;20096;31
2022/07/09 02:58:35;;;;;;;10.23;2.33;;;16.00;99.90;;;;;;2584762;54;20941;31
2022/07/09 03:01:13;;;;;;;4.97;2.30;;;16.10;99.90;;;;;;2585788;54;20049;31
2022/07/09 03:03:48;;;;;;;9.20;2.30;;;16.10;99.90;;;;;;2603884;46;22447;31
2022/07/09 03:06:22;;;;;;;7.75;2.65;;;16.10;99.90;;;;;;2585400;54;20084;31
2022/07/09 03:09:00;;;;;;;8.40;2.25;;;16.10;99.90;;;;;;2584827;54;20897;31
2022/07/09 03:11:36;;;;;;;5.15;2.15;;;16.00;99.90;;;;;;2584516;54;20058;31
2022/07/09 03:14:09;;;;;;;6.75;2.20;;;16.10;99.90;;;;;;2584409;54;20041;31
2022/07/09 03:16:46;;;;;;;9.15;2.90;;;16.10;99.90;;;;;;2585578;54;20026;31
2022/07/09 03:19:21;;;;;;;5.38;2.15;;;16.10;99.90;;;;;;2585493;54;20053;31
2022/07/09 03:21:56;;;;;;;7.50;2.60;;;16.10;99.90;;;;;;2585600;54;20112;31
2022/07/09 03:24:33;;;;;;;4.55;2.30;;;16.10;99.90;;;;;;2585464;54;20101;31
2022/07/09 03:27:10;;;;;;;8.10;2.60;;;16.10;99.90;;;;;;2585474;54;20943;31
2022/07/09 03:29:44;;;;;;;4.90;2.00;;;16.10;99.90;;;;;;2585344;54;21165;31
2022/07/09 03:32:19;;;;;;;3.13;1.80;;;16.10;99.90;;;;;;2585439;54;21114;31
2022/07/09 03:34:52;;;;;;;;;;;16.10;99.90;;;;;;2603397;46;20037;31
2022/07/09 03:37:26;;;;;;;7.40;2.60;;;16.10;99.90;;;;;;2585667;54;22286;31
2022/07/09 03:39:59;;;;;;;5.53;2.65;;;16.10;99.90;;;;;;2601969;46;21073;31
2022/07/09 03:42:37;;;;;;;4.43;2.17;;;16.20;99.90;;;;;;2585297;54;20120;31
2022/07/09 03:45:13;;;;;;;5.88;2.47;;;16.30;99.90;;;;;;2584511;54;21140;31
2022/07/09 03:47:48;;;;;;;5.20;1.75;;;16.40;99.90;;;;;;2598114;46;20893;31
2022/07/09 03:50:22;;;;;;;3.67;1.90;;;16.40;99.90;;;;;;2584585;54;20040;31
2022/07/09 03:52:55;;;;;;;6.65;2.50;;;16.60;99.90;;;;;;2603568;46;21167;31
2022/07/09 03:55:29;;;;;;;9.25;3.25;;;16.70;99.90;;;;;;2603133;46;21121;31
2022/07/09 03:58:07;;;;;;;7.15;2.50;;;16.70;99.90;;;;;;2602214;46;21028;31
2022/07/09 04:00:42;;;;;;;6.60;2.53;;;16.90;99.90;;;;;;2584549;54;20057;31
2022/07/09 04:03:19;;;;;;;5.82;2.28;;;16.90;99.90;;;;;;2585295;54;20874;31
2022/07/09 04:05:53;;;;;;;6.35;2.75;;;16.80;99.90;;;;;;2585671;54;20982;31
2022/07/09 04:08:27;;;;;;;4.75;2.42;;;16.90;99.90;;;;;;2585354;54;20092;31
2022/07/09 04:11:01;;;;;;;6.38;1.98;;;16.90;99.90;;;;;;2585180;54;20140;31
2022/07/09 04:13:39;;;;;;;4.53;2.53;;;16.90;99.90;;;;;;2604233;46;20924;31
2022/07/09 04:16:17;;;;;;;7.85;2.80;;;16.90;99.90;;;;;;2585253;54;20063;31
2022/07/09 04:18:53;;;;;;;5.93;2.33;;;16.90;99.90;;;;;;2585479;54;20889;31
2022/07/09 04:21:27;;;;;;;5.32;2.50;;;16.90;99.90;;;;;;2585340;54;21038;31
2022/07/09 04:24:01;;;;;;;5.93;3.20;;;16.90;99.90;;;;;;2585607;54;20950;31
2022/07/09 04:26:35;;;;;;;6.00;2.30;;;16.80;99.90;;;;;;2585320;54;19950;31
2022/07/09 04:29:13;;;;;;;7.32;2.60;;;17.00;99.90;;;;;;2603794;47;20798;31
2022/07/09 04:31:48;;;;;;;6.57;2.17;;;17.20;99.90;;;;;;2585232;54;20030;31
2022/07/09 04:34:24;;;;;;;6.50;2.65;;;17.30;99.90;;;;;;2584546;54;20034;31
2022/07/09 04:37:00;;;;;;;5.70;2.40;;;17.50;99.90;;;;;;2603318;47;20972;31
2022/07/09 04:39:34;;;;;;;6.37;2.37;;;17.50;99.90;;;;;;2584356;54;20042;31
2022/07/09 04:42:10;;;;;;;7.20;2.20;;;17.50;99.90;;;;;;2585144;54;20821;31
2022/07/09 04:44:46;;;;;;;6.80;2.60;;;17.30;99.90;;;;;;2683165;39;21050;31
2022/07/09 04:47:20;;;;;;;4.25;2.42;;;17.30;99.90;;;;;;2585188;54;20946;31
2022/07/09 04:49:57;;;;;;;5.90;2.80;;;17.40;99.90;;;;;;2601800;47;22080;31
2022/07/09 04:52:32;;;;;;;6.77;2.63;;;17.50;99.90;;;;;;2585432;54;20576;31
2022/07/09 04:55:06;;;;;;;6.00;2.50;;;17.50;99.90;;;;;;2585936;54;20300;31
2022/07/09 04:57:41;;;;;;;5.72;2.15;;;17.40;99.90;;;;;;2585996;54;21002;31
2022/07/09 05:00:21;;;;;;;9.20;2.60;;;17.40;99.90;;;;;;2602830;46;20807;31
2022/07/09 05:02:56;;;;;;;7.10;2.58;;;17.50;99.90;;;;;;2604530;46;20348;31
2022/07/09 05:05:32;;;;;;;8.35;2.40;;;17.40;99.90;;;;;;2586115;54;20037;31
2022/07/09 05:08:21;;;;;;;7.22;2.70;;;17.30;99.90;;;;;;2586335;54;21148;31
2022/07/09 05:10:56;;;;;;;4.67;2.40;;;17.30;99.90;;;;;;2585010;54;20872;31
2022/07/09 05:13:33;;;;;;;6.97;2.67;;;17.30;99.90;;;;;;2585007;54;21350;31
2022/07/09 05:16:10;;;;;;;5.83;2.53;;;17.40;99.90;;;;;;2585955;54;20984;31
2022/07/09 05:18:45;;;;;;;5.45;2.60;;;17.50;99.90;;;;;;2585025;54;20026;31
2022/07/09 05:21:19;;;;;;;5.20;2.35;;;17.80;99.90;;;;;;2584915;54;20238;31
2022/07/09 05:23:57;;;;;;;6.77;2.73;;;18.10;99.90;;;;;;2584774;54;20902;31
2022/07/09 05:26:32;;;;;;;5.97;2.55;;;18.30;99.90;;;;;;2585094;54;21123;31
2022/07/09 05:29:12;;;;;;;5.85;2.70;;;18.60;99.90;;;;;;2585802;54;20880;31
2022/07/09 05:31:57;;;;;;;6.80;2.10;;;18.70;99.90;;;;;;2584853;54;20744;31
2022/07/09 05:34:31;;;;;;;6.35;2.25;;;18.80;99.90;;;;;;2585924;54;20034;31
2022/07/09 05:37:09;;;;;;;5.72;2.33;;;19.00;99.90;;;;;;2586004;54;20991;31
2022/07/09 05:39:50;;;;;;;7.10;2.77;;;19.20;99.90;;;;;;2585865;54;20027;31
2022/07/09 05:42:27;;;;;;;6.60;2.20;;;19.40;99.90;;;;;;2584709;54;20265;31
2022/07/09 05:45:03;;;;;;;5.60;2.40;;;19.70;99.90;;;;;;2603209;46;21248;31
2022/07/09 05:47:41;;;;;;;3.47;1.88;;;20.00;99.90;;;;;;2584816;54;20793;31
2022/07/09 05:50:15;;;;;;;5.00;1.80;;;20.30;99.90;;;;;;2585087;54;21360;31
2022/07/09 05:52:50;;;;;;;4.45;1.85;;;20.40;99.90;;;;;;2585776;54;20721;31
2022/07/09 05:55:25;;;;;;;7.13;2.20;;;20.60;99.90;;;;;;2585568;54;20984;31
2022/07/09 05:58:00;;;;;;;3.35;2.00;;;20.80;99.90;;;;;;2585609;54;20266;31
2022/07/09 06:00:34;;;;;;;4.15;1.90;;;21.00;99.90;;;;;;2585635;54;20034;31
2022/07/09 06:03:13;;;;;;;5.53;1.80;;;21.10;99.90;;;;;;2585975;54;20889;31
2022/07/09 06:05:48;;;;;;;4.55;1.70;;;21.30;99.90;;;;;;2585021;54;20077;31
2022/07/09 06:08:28;;;;;;;5.15;1.90;;;21.60;99.90;;;;;;2604247;46;20886;31
2022/07/09 06:11:02;;;;;;;4.37;2.10;;;21.80;99.90;;;;;;2591995;46;19958;31
2022/07/09 06:13:37;;;;;;;5.80;1.80;;;22.00;99.90;;;;;;2584827;54;20902;31
2022/07/09 06:16:11;;;;;;;6.90;1.95;;;22.10;99.90;;;;;;2585676;54;21246;31
2022/07/09 06:18:48;;;;;;;6.13;2.25;;;22.30;99.90;;;;;;2585397;54;20033;31
2022/07/09 06:21:25;;;;;;;3.90;2.40;;;22.60;99.90;;;;;;2585643;54;20027;31
2022/07/09 06:24:02;;;;;;;5.22;1.35;;;22.80;99.90;;;;;;2682808;39;21420;31
2022/07/09 06:26:46;;;;;;;3.43;1.40;;;23.10;99.90;;;;;;2604112;46;19939;31
2022/07/09 06:29:23;;;;;;;4.45;2.40;;;23.30;99.90;;;;;;2585837;54;20887;31
2022/07/09 06:32:06;;;;;;;4.93;1.50;;;23.60;99.90;;;;;;2585788;54;20056;31
2022/07/09 06:34:47;;;;;;;5.72;1.67;;;23.80;99.90;;;;;;2585169;54;20054;31
2022/07/09 06:37:22;;;;;;;3.80;1.77;;;24.10;99.90;;;;;;2585424;54;20052;31
2022/07/09 06:39:59;;;;;;;7.78;1.55;;;24.30;99.90;;;;;;2584541;54;20801;31
2022/07/09 06:42:32;;;;;;;5.80;1.93;;;24.20;99.90;;;;;;2585073;54;20915;31
2022/07/09 06:45:34;;;;;;;5.60;1.60;;;24.30;99.90;;;;;;2585066;54;20026;31
2022/07/09 06:48:22;;;;;;;7.70;1.70;;;24.50;99.90;;;;;;2604089;46;20064;31
2022/07/09 06:50:54;;;;;;;5.27;1.43;;;24.60;99.90;;;;;;2585486;54;20241;31
2022/07/09 06:53:33;;;;;;;3.50;1.00;;;24.70;99.90;;;;;;2585483;54;21092;31
2022/07/09 06:56:08;;;;;;;5.00;1.52;;;24.90;99.90;;;;;;2585609;54;21131;31
2022/07/09 06:58:42;;;;;;;4.75;1.40;;;25.10;99.90;;;;;;2585799;54;20022;31
2022/07/09 07:01:26;;;;;;;3.13;1.25;;;24.90;99.90;;;;;;2585527;54;20026;31
2022/07/09 07:04:06;;;;;;;5.78;1.35;;;24.60;99.90;;;;;;2585388;54;20768;31
2022/07/09 07:06:43;;;;;;;4.20;1.20;;;24.20;99.90;;;;;;2590214;46;20873;31
2022/07/09 07:09:23;;;;;;;4.47;1.60;;;23.70;99.90;;;;;;2585101;54;20026;31
2022/07/09 07:11:59;;;;;;;3.33;1.17;;;23.40;99.90;;;;;;2683089;39;21325;31
2022/07/09 07:14:33;;;;;;;6.47;1.33;;;23.10;99.90;;;;;;2585434;54;20030;31
2022/07/09 07:17:10;;;;;;;5.82;1.50;;;23.20;99.90;;;;;;2603455;46;20030;31
2022/07/09 07:19:50;;;;;;;3.20;0.95;;;23.10;99.90;;;;;;2585313;54;20788;31
2022/07/09 07:22:28;;;;;;;5.70;1.48;;;23.40;99.90;;;;;;2585207;54;20030;31
2022/07/09 07:28:03;;;;;;;4.50;1.15;;;24.00;99.90;;;;;;2585062;54;20070;31
2022/07/09 07:30:42;;;;;;;3.63;1.25;;;24.10;99.90;;;;;;2585547;54;20037;31
2022/07/09 07:33:18;;;;;;;5.80;1.23;;;24.20;99.90;;;;;;2585147;54;20141;31
2022/07/09 07:35:55;;;;;;;8.00;1.33;;;24.30;99.90;;;;;;2589341;46;21205;31
2022/07/09 07:38:37;;;;;;;7.75;2.05;;;24.30;99.90;;;;;;2585555;54;20488;31
2022/07/09 07:41:10;;;;;;;4.40;1.48;;;24.20;99.90;;;;;;2585470;54;20029;31
2022/07/09 07:43:47;;;;;;;3.83;1.10;;;24.10;99.90;;;;;;2585165;54;20943;31
2022/07/09 07:46:23;;;;;;;4.07;1.10;;;24.10;99.90;;;;;;2584546;54;19942;31
2022/07/09 07:49:04;;;;;;;5.85;1.05;;;24.00;99.90;;;;;;2585442;54;21000;31
2022/07/09 07:54:30;;;;;;;3.95;1.05;;;24.10;99.90;;;;;;2585539;54;20027;31
2022/07/09 07:57:07;;;;;;;5.00;1.10;;;24.20;99.90;;;;;;2584189;54;20931;31
2022/07/09 07:59:51;;;;;;;3.20;1.00;;;24.00;99.90;;;;;;2598119;46;20058;31
2022/07/09 08:02:24;;;;;;;3.57;0.70;;;24.20;99.90;;;;;;2585178;54;20238;31
2022/07/09 08:04:59;;;;;;;3.07;0.90;;;24.60;99.90;;;;;;2584527;54;20027;31
2022/07/09 08:07:36;;;;;;;3.15;1.30;;;24.60;99.90;;;;;;2584508;54;20984;31
2022/07/09 08:10:12;;;;;;;2.78;0.90;;;24.60;99.90;;;;;;2585325;54;20806;31
2022/07/09 08:12:47;;;;;;;3.80;0.90;;;24.60;99.90;;;;;;2585100;54;20986;31
2022/07/09 08:15:25;;;;;;;3.33;1.17;;;24.50;99.90;;;;;;2584367;54;20046;31
2022/07/09 08:17:59;;;;;;;3.92;1.02;;;24.60;99.90;;;;;;2584263;54;20898;31
2022/07/09 08:20:39;;;;;;;2.30;0.70;;;24.40;99.90;;;;;;2584193;54;20092;31
2022/07/09 08:23:15;;;;;;;4.85;1.10;;;24.20;99.90;;;;;;2585300;54;20082;31
2022/07/09 08:25:55;;;;;;;3.60;1.00;;;24.20;99.90;;;;;;2585140;54;20949;31
2022/07/09 08:28:28;;;;;;;4.68;1.40;;;24.30;99.90;;;;;;2586167;54;20030;31
2022/07/09 08:31:09;;;;;;;4.25;1.13;;;24.60;99.90;;;;;;2585979;54;20026;31
2022/07/09 08:33:45;;;;;;;4.60;0.60;;;24.80;99.90;;;;;;2585725;54;20093;31
2022/07/09 08:36:20;;;;;;;3.60;0.77;;;25.10;99.80;;;;;;2682731;39;20419;31
2022/07/09 08:38:57;;;;;;;5.30;1.13;;;25.10;99.10;;;;;;2585047;54;20905;31
2022/07/09 08:41:36;;;;;;;2.25;1.02;;;25.30;99.20;;;;;;2585784;54;20953;31
2022/07/09 08:44:14;;;;;;;4.90;1.10;;;25.30;99.20;;;;;;2603852;46;20021;31
2022/07/09 08:46:51;;;;;;;3.13;0.90;;;25.40;99.60;;;;;;2585074;54;20243;31
2022/07/09 08:49:26;;;;;;;3.20;0.90;;;25.60;99.90;;;;;;2584943;54;20897;31
2022/07/09 08:51:59;;;;;;;2.80;1.23;;;25.90;99.30;;;;;;2585752;54;20906;31
2022/07/09 08:54:36;;;;;;;2.92;0.93;;;26.20;97.90;;;;;;2585691;54;20876;31
2022/07/09 08:57:14;;;;;;;3.60;0.90;;;26.30;97.50;;;;;;2604548;46;20921;31
2022/07/09 08:59:51;;;;;;;3.60;1.25;;;26.50;97.30;;;;;;2604174;46;20052;31
2022/07/09 09:02:25;;;;;;;1.92;1.00;;;26.60;97.50;;;;;;2702034;39;21322;31
2022/07/09 09:05:02;;;;;;;3.25;0.70;;;26.80;97.40;;;;;;2585870;54;20043;31
2022/07/09 09:07:44;;;;;;;4.38;1.20;;;27.20;97.30;;;;;;2683781;39;21066;31
2022/07/09 09:10:25;;;;;;;2.92;1.00;;;27.30;96.90;;;;;;2585640;54;20027;31
2022/07/09 09:13:00;;;;;;;6.80;1.20;;;27.20;93.10;;;;;;2585878;54;20049;31
2022/07/09 09:15:34;;;;;;;4.40;1.40;;;27.20;92.90;;;;;;2585584;54;20832;31
2022/07/09 09:18:10;;;;;;;3.22;1.05;;;27.20;92.40;;;;;;2585460;54;20234;31
2022/07/09 09:20:50;;;;;;;;;;;27.30;92.90;;;;;;2604088;46;22515;31
2022/07/09 09:23:27;;;;;;;4.03;0.90;;;27.30;92.70;;;;;;2585621;54;20729;31
2022/07/09 09:26:11;;;;;;;3.55;1.00;;;27.20;93.40;;;;;;2585659;54;20964;31
2022/07/09 09:28:51;;;;;;;4.00;1.30;;;27.10;92.60;;;;;;2603771;46;20120;31
2022/07/09 09:31:27;;;;;;;3.60;1.00;;;27.10;93.90;;;;;;2584653;54;20046;31
2022/07/09 09:34:02;;;;;;;7.88;0.98;;;27.00;92.80;;;;;;2585502;54;20923;31
2022/07/09 09:36:40;;;;;;;3.80;1.30;;;26.90;91.80;;;;;;2603983;46;20133;31
2022/07/09 09:39:18;;;;;;;3.05;1.00;;;26.70;91.40;;;;;;2604290;47;20057;31
2022/07/09 09:41:53;;;;;;;4.95;1.67;;;26.60;91.60;;;;;;2585756;54;20046;31
2022/07/09 09:44:28;;;;;;;;;;;26.60;92.10;;;;;;2585935;54;20932;31
2022/07/09 09:47:07;;;;;;;2.00;1.13;;;26.50;92.20;;;;;;2585798;54;20693;31
2022/07/09 09:49:40;;;;;;;4.00;1.25;;;26.70;92.70;;;;;;2586039;54;21116;31
2022/07/09 09:52:26;;;;;;;3.45;1.08;;;26.90;92.10;;;;;;2585487;54;20033;31
2022/07/09 09:55:03;;;;;;;2.30;0.80;;;27.00;91.10;;;;;;2585486;54;21365;31
2022/07/09 09:57:37;;;;;;;4.30;1.00;;;26.90;90.70;;;;;;2584706;54;20030;31
2022/07/09 10:00:15;;;;;;;8.15;1.30;;;26.90;90.80;;;;;;2585354;54;20921;31
2022/07/09 10:02:52;;;;;;;4.95;1.20;;;26.80;91.90;;;;;;2585619;54;21918;31
2022/07/09 10:05:30;;;;;;;3.27;1.03;;;27.00;92.30;;;;;;2585506;54;20854;31
2022/07/09 10:08:12;;;;;;;5.30;1.90;;;27.10;92.10;;;;;;2584476;54;20046;31
2022/07/09 10:10:53;;;;;;;3.95;0.90;;;27.10;90.90;;;;;;2585722;54;21058;31
2022/07/09 10:13:27;;;;;;;3.83;1.10;;;27.30;90.80;;;;;;2585282;54;20921;31
2022/07/09 10:16:04;;;;;;;4.65;0.98;;;27.40;90.90;;;;;;2584468;54;20124;31
2022/07/09 10:18:38;;;;;;;3.83;1.17;;;27.40;90.50;;;;;;2584662;54;20931;31
2022/07/09 10:21:13;;;;;;;3.87;1.77;;;27.40;90.80;;;;;;2584432;54;20090;31
2022/07/09 10:23:57;;;;;;;1.45;0.70;;;27.50;90.70;;;;;;2585352;54;19973;31
2022/07/09 10:26:43;;;;;;;5.70;1.15;;;27.60;90.80;;;;;;2585439;54;21035;31
2022/07/09 10:29:24;;;;;;;2.75;1.00;;;27.40;90.70;;;;;;2585080;54;20030;31
2022/07/09 10:31:59;;;;;;;3.85;0.98;;;27.30;92.00;;;;;;2585497;54;20100;31
2022/07/09 10:34:44;;;;;;;1.67;0.97;;;27.20;90.30;;;;;;2683429;39;21241;31
2022/07/09 10:37:18;;;;;;;4.80;1.40;;;27.20;89.40;;;;;;2585299;54;20067;31
2022/07/09 10:39:59;;;;;;;3.78;1.08;;;27.10;90.60;;;;;;2603736;46;20924;31
2022/07/09 10:42:34;;;;;;;4.90;1.30;;;27.20;90.70;;;;;;2585365;54;20030;31
2022/07/09 10:45:18;;;;;;;3.55;1.45;;;27.20;91.30;;;;;;2585580;54;22553;31
2022/07/09 10:47:57;;;;;;;4.72;1.40;;;27.20;91.90;;;;;;2585455;54;20057;31
2022/07/09 10:50:32;;;;;;;2.75;1.30;;;27.20;91.30;;;;;;2584962;54;21948;31
2022/07/09 10:53:09;;;;;;;3.75;1.20;;;27.20;90.70;;;;;;2604106;46;19977;31
2022/07/09 10:55:43;;;;;;;3.23;1.10;;;27.10;91.30;;;;;;2585165;54;20185;31
2022/07/09 10:58:23;;;;;;;3.50;1.70;;;27.10;91.00;;;;;;2585217;54;20227;31
2022/07/09 11:01:06;;;;;;;2.85;1.50;;;27.00;91.80;;;;;;2585397;54;20026;31
2022/07/09 11:03:42;;;;;;;5.63;2.03;;;27.20;91.90;;;;;;2584510;54;19946;31
2022/07/09 11:06:16;;;;;;;5.10;1.50;;;27.20;92.10;;;;;;2584141;54;20145;31
2022/07/09 11:08:51;;;;;;;2.85;1.50;;;27.10;90.90;;;;;;2585168;54;21053;31
2022/07/09 11:11:24;;;;;;;1.60;1.20;;;27.20;90.40;;;;;;2585231;54;20030;31
2022/07/09 11:14:04;;;;;;;3.13;1.73;;;26.90;88.50;;;;;;2584700;54;20325;31
2022/07/09 11:16:42;;;;;;;2.40;1.45;;;26.90;88.20;;;;;;2585111;54;20915;31
2022/07/09 11:19:23;;;;;;;4.20;1.40;;;26.90;89.80;;;;;;2585276;54;20922;31
2022/07/09 11:22:03;;;;;;;2.38;1.52;;;27.10;90.10;;;;;;2602556;46;20030;31
2022/07/09 11:24:37;;;;;;;4.05;1.75;;;27.10;90.20;;;;;;2584465;54;20919;31
2022/07/09 11:27:13;;;;;;;4.80;2.45;;;26.90;89.20;;;;;;2585369;54;20058;31
2022/07/09 11:29:51;;;;;;;;;;;26.70;90.40;;;;;;2584461;54;20902;31
2022/07/09 11:32:28;;;;;;;4.27;1.90;;;26.50;91.60;;;;;;2603741;46;19935;31
2022/07/09 11:35:02;;;;;;;3.80;2.70;;;26.40;91.80;;;;;;2584163;54;20266;31
2022/07/09 11:37:39;;;;;;;3.00;2.65;;;26.40;92.20;;;;;;2584525;54;20959;31
2022/07/09 11:40:17;;;;;;;3.70;2.95;;;26.30;92.70;;;;;;2585157;54;20930;31
2022/07/09 11:42:52;;;;;;;4.57;2.97;;;26.40;92.10;;;;;;2585160;54;20778;31
2022/07/09 11:45:31;;;;;;;3.88;3.00;;;26.40;92.00;;;;;;2603474;46;20026;31
2022/07/09 11:48:12;;;;;;;7.03;3.63;;;26.30;92.10;;;;;;2585026;54;20033;31
2022/07/09 11:50:48;;;;;;;5.57;3.57;;;26.10;92.10;;;;;;2585571;46;21029;31
2022/07/09 11:53:25;;;;;;;5.73;2.80;;;26.10;92.00;;;;;;2596074;46;20029;31
2022/07/09 11:56:03;;;;;;;4.70;3.30;;;26.00;92.00;;;;;;2585164;54;20060;31
2022/07/09 11:58:38;;;;;;;7.80;2.40;;;25.90;91.90;;;;;;2585028;54;20027;31
2022/07/09 12:01:17;;;;;;;4.10;2.33;;;25.90;90.90;;;;;;2585120;54;20802;31
2022/07/09 12:03:52;;;;;;;6.22;2.35;;;25.70;91.10;;;;;;2585254;54;20965;31
2022/07/09 12:06:27;;;;;;;2.50;2.00;;;25.70;91.40;;;;;;2683413;39;20996;31
2022/07/09 12:09:04;;;;;;;4.25;2.10;;;25.60;89.90;;;;;;2585401;54;20976;31
2022/07/09 12:11:44;;;;;;;3.70;1.80;;;25.30;90.60;;;;;;2585100;54;20041;31
